sensor_id;sensor_type;location;lat;lon;timestamp;temperature;humidity
14779;DHT22;7481;53.750;10.570;2022-08-24T00:01:33;18.20;99.90
14779;DHT22;7481;53.750;10.570;2022-08-24T00:04:20;18.20;99.90
14779;DHT22;7481;53.750;10.570;2022-08-24T00:07:07;18.10;99.90
14779;DHT22;7481;53.750;10.570;2022-08-24T00:10:14;18.10;99.90
14779;DHT22;7481;53.750;10.570;2022-08-24T00:13:01;18.10;99.90
14779;DHT22;7481;53.750;10.570;2022-08-24T00:15:48;18.10;99.90
14779;DHT22;7481;53.750;10.570;2022-08-24T00:18:36;18.10;99.90
14779;DHT22;7481;53.750;10.570;2022-08-24T00:21:23;18.00;99.90
14779;DHT22;7481;53.750;10.570;2022-08-24T00:24:11;18.00;99.90
14779;DHT22;7481;53.750;10.570;2022-08-24T00:26:58;17.90;99.90
14779;DHT22;7481;53.750;10.570;2022-08-24T00:29:46;18.00;99.90
14779;DHT22;7481;53.750;10.570;2022-08-24T00:32:33;17.90;99.90
14779;DHT22;7481;53.750;10.570;2022-08-24T00:35:21;17.90;99.90
14779;DHT22;7481;53.750;10.570;2022-08-24T00:38:08;17.90;99.90
14779;DHT22;7481;53.750;10.570;2022-08-24T00:40:55;17.80;99.90
14779;DHT22;7481;53.750;10.570;2022-08-24T00:43:54;17.70;99.90
14779;DHT22;7481;53.750;10.570;2022-08-24T00:47:05;17.70;99.90
14779;DHT22;7481;53.750;10.570;2022-08-24T00:50:00;17.70;99.90
14779;DHT22;7481;53.750;10.570;2022-08-24T00:52:52;17.60;99.90
14779;DHT22;7481;53.750;10.570;2022-08-24T00:55:46;17.60;99.90
14779;DHT22;7481;53.750;10.570;2022-08-24T00:58:38;17.60;99.90
14779;DHT22;7481;53.750;10.570;2022-08-24T01:01:27;17.60;99.90
14779;DHT22;7481;53.750;10.570;2022-08-24T01:04:21;17.60;99.90
14779;DHT22;7481;53.750;10.570;2022-08-24T01:07:15;17.50;99.90
14779;DHT22;7481;53.750;10.570;2022-08-24T01:10:06;17.50;99.90
14779;DHT22;7481;53.750;10.570;2022-08-24T01:12:56;17.50;99.90
14779;DHT22;7481;53.750;10.570;2022-08-24T01:15:50;17.40;99.90
14779;DHT22;7481;53.750;10.570;2022-08-24T01:18:39;17.50;99.90
14779;DHT22;7481;53.750;10.570;2022-08-24T01:21:45;17.40;99.90
14779;DHT22;7481;53.750;10.570;2022-08-24T01:24:36;17.40;99.90
14779;DHT22;7481;53.750;10.570;2022-08-24T01:27:23;17.30;99.90
14779;DHT22;7481;53.750;10.570;2022-08-24T01:30:15;17.30;99.90
14779;DHT22;7481;53.750;10.570;2022-08-24T01:33:06;17.30;99.90
14779;DHT22;7481;53.750;10.570;2022-08-24T01:35:59;17.30;99.90
14779;DHT22;7481;53.750;10.570;2022-08-24T01:38:47;17.30;99.90
14779;DHT22;7481;53.750;10.570;2022-08-24T01:41:35;17.20;99.90
14779;DHT22;7481;53.750;10.570;2022-08-24T01:44:24;17.20;99.90
14779;DHT22;7481;53.750;10.570;2022-08-24T01:47:14;17.10;99.90
14779;DHT22;7481;53.750;10.570;2022-08-24T01:50:01;17.10;99.90
14779;DHT22;7481;53.750;10.570;2022-08-24T01:52:48;17.10;99.90
14779;DHT22;7481;53.750;10.570;2022-08-24T01:55:52;17.10;99.90
14779;DHT22;7481;53.750;10.570;2022-08-24T01:58:45;17.10;99.90
14779;DHT22;7481;53.750;10.570;2022-08-24T02:01:36;17.10;99.90
14779;DHT22;7481;53.750;10.570;2022-08-24T02:04:24;17.10;99.90
14779;DHT22;7481;53.750;10.570;2022-08-24T02:07:11;17.10;99.90
14779;DHT22;7481;53.750;10.570;2022-08-24T02:09:58;17.10;99.90
14779;DHT22;7481;53.750;10.570;2022-08-24T02:12:47;17.10;99.90
14779;DHT22;7481;53.750;10.570;2022-08-24T02:15:44;17.10;99.90
14779;DHT22;7481;53.750;10.570;2022-08-24T02:18:35;17.00;99.90
14779;DHT22;7481;53.750;10.570;2022-08-24T02:21:23;17.00;99.90
14779;DHT22;7481;53.750;10.570;2022-08-24T02:24:10;17.00;99.90
14779;DHT22;7481;53.750;10.570;2022-08-24T02:26:58;16.90;99.90
14779;DHT22;7481;53.750;10.570;2022-08-24T02:29:45;16.90;99.90
14779;DHT22;7481;53.750;10.570;2022-08-24T02:32:32;16.90;99.90
14779;DHT22;7481;53.750;10.570;2022-08-24T02:35:20;16.90;99.90
14779;DHT22;7481;53.750;10.570;2022-08-24T02:38:08;16.90;99.90
14779;DHT22;7481;53.750;10.570;2022-08-24T02:40:56;16.90;99.90
14779;DHT22;7481;53.750;10.570;2022-08-24T02:43:43;16.80;99.90
14779;DHT22;7481;53.750;10.570;2022-08-24T02:46:31;16.80;99.90
14779;DHT22;7481;53.750;10.570;2022-08-24T02:49:19;16.90;99.90
14779;DHT22;7481;53.750;10.570;2022-08-24T02:52:08;16.80;99.90
14779;DHT22;7481;53.750;10.570;2022-08-24T02:54:56;16.80;99.90
14779;DHT22;7481;53.750;10.570;2022-08-24T02:57:43;16.80;99.90
14779;DHT22;7481;53.750;10.570;2022-08-24T03:00:30;16.70;99.90
14779;DHT22;7481;53.750;10.570;2022-08-24T03:03:17;16.70;99.90
14779;DHT22;7481;53.750;10.570;2022-08-24T03:06:05;16.70;99.90
14779;DHT22;7481;53.750;10.570;2022-08-24T03:08:53;16.60;99.90
14779;DHT22;7481;53.750;10.570;2022-08-24T03:11:42;16.70;99.90
14779;DHT22;7481;53.750;10.570;2022-08-24T03:14:31;16.70;99.90
14779;DHT22;7481;53.750;10.570;2022-08-24T03:17:18;16.70;99.90
14779;DHT22;7481;53.750;10.570;2022-08-24T03:20:09;16.70;99.90
14779;DHT22;7481;53.750;10.570;2022-08-24T03:22:57;16.70;99.90
14779;DHT22;7481;53.750;10.570;2022-08-24T03:25:44;16.70;99.90
14779;DHT22;7481;53.750;10.570;2022-08-24T03:28:31;16.60;99.90
14779;DHT22;7481;53.750;10.570;2022-08-24T03:31:18;16.60;99.90
14779;DHT22;7481;53.750;10.570;2022-08-24T03:34:05;16.40;99.90
14779;DHT22;7481;53.750;10.570;2022-08-24T03:36:52;16.90;99.90
14779;DHT22;7481;53.750;10.570;2022-08-24T03:39:39;16.80;99.90
14779;DHT22;7481;53.750;10.570;2022-08-24T03:42:27;16.60;99.90
14779;DHT22;7481;53.750;10.570;2022-08-24T03:45:14;16.70;99.90
14779;DHT22;7481;53.750;10.570;2022-08-24T03:48:01;16.50;99.90
14779;DHT22;7481;53.750;10.570;2022-08-24T03:50:49;16.40;99.90
14779;DHT22;7481;53.750;10.570;2022-08-24T03:53:36;16.40;99.90
14779;DHT22;7481;53.750;10.570;2022-08-24T03:56:29;16.50;99.90
14779;DHT22;7481;53.750;10.570;2022-08-24T03:59:16;16.40;99.90
14779;DHT22;7481;53.750;10.570;2022-08-24T04:02:06;16.40;99.90
14779;DHT22;7481;53.750;10.570;2022-08-24T04:04:56;16.40;99.90
14779;DHT22;7481;53.750;10.570;2022-08-24T04:07:43;16.40;99.90
14779;DHT22;7481;53.750;10.570;2022-08-24T04:10:32;16.30;99.90
14779;DHT22;7481;53.750;10.570;2022-08-24T04:13:19;16.30;99.90
14779;DHT22;7481;53.750;10.570;2022-08-24T04:16:12;16.30;99.90
14779;DHT22;7481;53.750;10.570;2022-08-24T04:18:59;16.30;99.90
14779;DHT22;7481;53.750;10.570;2022-08-24T04:21:46;16.20;99.90
14779;DHT22;7481;53.750;10.570;2022-08-24T04:24:33;16.20;99.90
14779;DHT22;7481;53.750;10.570;2022-08-24T04:27:20;16.30;99.90
14779;DHT22;7481;53.750;10.570;2022-08-24T04:30:08;16.00;99.90
14779;DHT22;7481;53.750;10.570;2022-08-24T04:32:56;15.90;99.90
14779;DHT22;7481;53.750;10.570;2022-08-24T04:35:45;15.80;99.90
14779;DHT22;7481;53.750;10.570;2022-08-24T04:38:34;15.80;99.90
14779;DHT22;7481;53.750;10.570;2022-08-24T04:41:22;15.90;99.90
14779;DHT22;7481;53.750;10.570;2022-08-24T04:44:17;16.00;99.90
14779;DHT22;7481;53.750;10.570;2022-08-24T04:47:05;13.90;99.90
14779;DHT22;7481;53.750;10.570;2022-08-24T04:49:53;16.00;99.90
14779;DHT22;7481;53.750;10.570;2022-08-24T04:52:40;16.10;99.90
14779;DHT22;7481;53.750;10.570;2022-08-24T04:55:27;16.10;99.90
14779;DHT22;7481;53.750;10.570;2022-08-24T04:58:16;16.20;99.90
14779;DHT22;7481;53.750;10.570;2022-08-24T05:01:13;16.10;99.90
14779;DHT22;7481;53.750;10.570;2022-08-24T05:04:02;16.10;99.90
14779;DHT22;7481;53.750;10.570;2022-08-24T05:06:49;16.00;99.90
14779;DHT22;7481;53.750;10.570;2022-08-24T05:09:40;16.10;99.90
14779;DHT22;7481;53.750;10.570;2022-08-24T05:12:27;16.10;99.90
14779;DHT22;7481;53.750;10.570;2022-08-24T05:15:14;16.10;99.90
14779;DHT22;7481;53.750;10.570;2022-08-24T05:18:02;16.10;99.90
14779;DHT22;7481;53.750;10.570;2022-08-24T05:20:49;16.20;99.90
14779;DHT22;7481;53.750;10.570;2022-08-24T05:23:37;16.20;99.90
14779;DHT22;7481;53.750;10.570;2022-08-24T05:26:26;16.30;99.90
14779;DHT22;7481;53.750;10.570;2022-08-24T05:29:14;16.40;99.90
14779;DHT22;7481;53.750;10.570;2022-08-24T05:32:01;16.50;99.90
14779;DHT22;7481;53.750;10.570;2022-08-24T05:34:50;16.60;99.90
14779;DHT22;7481;53.750;10.570;2022-08-24T05:37:38;16.70;99.90
14779;DHT22;7481;53.750;10.570;2022-08-24T05:40:25;16.80;99.90
14779;DHT22;7481;53.750;10.570;2022-08-24T05:43:19;16.90;99.90
14779;DHT22;7481;53.750;10.570;2022-08-24T05:46:06;17.00;99.90
14779;DHT22;7481;53.750;10.570;2022-08-24T05:48:53;17.10;99.90
14779;DHT22;7481;53.750;10.570;2022-08-24T05:51:40;17.20;99.90
14779;DHT22;7481;53.750;10.570;2022-08-24T05:54:30;17.20;99.90
14779;DHT22;7481;53.750;10.570;2022-08-24T05:57:17;15.00;99.90
14779;DHT22;7481;53.750;10.570;2022-08-24T06:00:05;17.40;99.90
14779;DHT22;7481;53.750;10.570;2022-08-24T06:02:56;17.50;99.90
14779;DHT22;7481;53.750;10.570;2022-08-24T06:05:44;17.60;99.90
14779;DHT22;7481;53.750;10.570;2022-08-24T06:08:33;17.70;99.90
14779;DHT22;7481;53.750;10.570;2022-08-24T06:11:36;17.80;99.90
14779;DHT22;7481;53.750;10.570;2022-08-24T06:14:23;17.90;99.90
14779;DHT22;7481;53.750;10.570;2022-08-24T06:17:13;18.00;99.90
14779;DHT22;7481;53.750;10.570;2022-08-24T06:20:00;18.00;99.90
14779;DHT22;7481;53.750;10.570;2022-08-24T06:22:48;18.10;99.90
14779;DHT22;7481;53.750;10.570;2022-08-24T06:25:39;18.20;99.90
14779;DHT22;7481;53.750;10.570;2022-08-24T06:28:44;18.30;99.90
14779;DHT22;7481;53.750;10.570;2022-08-24T06:31:39;18.40;99.90
14779;DHT22;7481;53.750;10.570;2022-08-24T06:34:27;18.50;99.90
14779;DHT22;7481;53.750;10.570;2022-08-24T06:37:15;18.70;99.90
14779;DHT22;7481;53.750;10.570;2022-08-24T06:40:02;18.80;99.90
14779;DHT22;7481;53.750;10.570;2022-08-24T06:42:49;19.00;99.90
14779;DHT22;7481;53.750;10.570;2022-08-24T06:45:36;19.10;99.90
14779;DHT22;7481;53.750;10.570;2022-08-24T06:48:23;19.20;99.90
14779;DHT22;7481;53.750;10.570;2022-08-24T06:51:16;19.40;99.90
14779;DHT22;7481;53.750;10.570;2022-08-24T06:54:04;19.80;99.90
14779;DHT22;7481;53.750;10.570;2022-08-24T06:56:51;20.00;99.90
14779;DHT22;7481;53.750;10.570;2022-08-24T06:59:38;20.80;99.90
14779;DHT22;7481;53.750;10.570;2022-08-24T07:02:26;22.10;99.90
14779;DHT22;7481;53.750;10.570;2022-08-24T07:05:14;23.00;99.90
14779;DHT22;7481;53.750;10.570;2022-08-24T07:08:01;23.10;99.90
14779;DHT22;7481;53.750;10.570;2022-08-24T07:10:49;23.00;99.90
14779;DHT22;7481;53.750;10.570;2022-08-24T07:13:37;23.20;99.90
14779;DHT22;7481;53.750;10.570;2022-08-24T07:16:24;24.00;99.90
14779;DHT22;7481;53.750;10.570;2022-08-24T07:19:14;25.10;99.90
14779;DHT22;7481;53.750;10.570;2022-08-24T07:22:01;26.10;99.90
14779;DHT22;7481;53.750;10.570;2022-08-24T07:24:48;27.00;99.90
14779;DHT22;7481;53.750;10.570;2022-08-24T07:27:38;27.10;99.90
14779;DHT22;7481;53.750;10.570;2022-08-24T07:30:26;28.40;99.90
14779;DHT22;7481;53.750;10.570;2022-08-24T07:33:14;29.00;99.90
14779;DHT22;7481;53.750;10.570;2022-08-24T07:36:01;29.60;99.90
14779;DHT22;7481;53.750;10.570;2022-08-24T07:38:49;29.80;99.90
14779;DHT22;7481;53.750;10.570;2022-08-24T07:41:40;30.10;99.90
14779;DHT22;7481;53.750;10.570;2022-08-24T07:44:47;30.70;99.90
14779;DHT22;7481;53.750;10.570;2022-08-24T07:47:34;31.00;99.90
14779;DHT22;7481;53.750;10.570;2022-08-24T07:50:29;31.10;99.90
14779;DHT22;7481;53.750;10.570;2022-08-24T07:53:16;30.70;99.90
14779;DHT22;7481;53.750;10.570;2022-08-24T07:56:10;31.10;99.60
14779;DHT22;7481;53.750;10.570;2022-08-24T07:58:57;30.90;99.50
14779;DHT22;7481;53.750;10.570;2022-08-24T08:01:44;31.00;99.60
14779;DHT22;7481;53.750;10.570;2022-08-24T08:04:31;30.60;99.90
14779;DHT22;7481;53.750;10.570;2022-08-24T08:07:18;30.50;99.40
14779;DHT22;7481;53.750;10.570;2022-08-24T08:10:06;30.70;99.10
14779;DHT22;7481;53.750;10.570;2022-08-24T08:12:53;31.10;99.00
14779;DHT22;7481;53.750;10.570;2022-08-24T08:15:40;31.50;98.20
14779;DHT22;7481;53.750;10.570;2022-08-24T08:18:28;31.90;97.90
14779;DHT22;7481;53.750;10.570;2022-08-24T08:21:15;32.50;97.00
14779;DHT22;7481;53.750;10.570;2022-08-24T08:24:21;32.30;97.30
14779;DHT22;7481;53.750;10.570;2022-08-24T08:27:11;32.50;95.70
14779;DHT22;7481;53.750;10.570;2022-08-24T08:29:58;32.60;94.80
14779;DHT22;7481;53.750;10.570;2022-08-24T08:32:45;32.70;95.30
14779;DHT22;7481;53.750;10.570;2022-08-24T08:35:32;33.10;95.10
14779;DHT22;7481;53.750;10.570;2022-08-24T08:38:20;33.50;94.10
14779;DHT22;7481;53.750;10.570;2022-08-24T08:44:23;33.50;93.30
14779;DHT22;7481;53.750;10.570;2022-08-24T08:50:16;33.10;93.60
14779;DHT22;7481;53.750;10.570;2022-08-24T08:56:24;34.00;93.10
14779;DHT22;7481;53.750;10.570;2022-08-24T09:09:10;33.00;93.80
14779;DHT22;7481;53.750;10.570;2022-08-24T09:31:09;34.60;90.30
14779;DHT22;7481;53.750;10.570;2022-08-24T09:37:25;34.70;88.50
14779;DHT22;7481;53.750;10.570;2022-08-24T09:40:50;34.00;90.00
14779;DHT22;7481;53.750;10.570;2022-08-24T09:53:13;32.70;91.80
14779;DHT22;7481;53.750;10.570;2022-08-24T10:05:51;33.70;86.50
14779;DHT22;7481;53.750;10.570;2022-08-24T10:19:29;33.10;89.00
14779;DHT22;7481;53.750;10.570;2022-08-24T10:25:32;32.80;89.20
14779;DHT22;7481;53.750;10.570;2022-08-24T10:34:48;33.20;88.40
14779;DHT22;7481;53.750;10.570;2022-08-24T10:47:19;33.10;82.60
14779;DHT22;7481;53.750;10.570;2022-08-24T10:50:29;33.00;83.70
14779;DHT22;7481;53.750;10.570;2022-08-24T10:53:26;33.00;85.70
14779;DHT22;7481;53.750;10.570;2022-08-24T10:56:20;32.90;85.30
14779;DHT22;7481;53.750;10.570;2022-08-24T10:59:22;32.90;86.40
14779;DHT22;7481;53.750;10.570;2022-08-24T11:02:36;32.80;89.30
14779;DHT22;7481;53.750;10.570;2022-08-24T11:05:37;33.00;88.60
14779;DHT22;7481;53.750;10.570;2022-08-24T11:08:30;33.50;87.40
14779;DHT22;7481;53.750;10.570;2022-08-24T11:11:38;33.50;86.50
14779;DHT22;7481;53.750;10.570;2022-08-24T11:14:28;33.40;87.70
14779;DHT22;7481;53.750;10.570;2022-08-24T11:17:27;33.40;88.80
14779;DHT22;7481;53.750;10.570;2022-08-24T11:23:21;33.30;88.60
14779;DHT22;7481;53.750;10.570;2022-08-24T11:26:11;33.40;87.30
14779;DHT22;7481;53.750;10.570;2022-08-24T11:29:04;33.10;87.30
14779;DHT22;7481;53.750;10.570;2022-08-24T11:31:52;32.90;88.70
14779;DHT22;7481;53.750;10.570;2022-08-24T11:34:39;33.00;89.10
14779;DHT22;7481;53.750;10.570;2022-08-24T11:37:35;33.10;86.70
14779;DHT22;7481;53.750;10.570;2022-08-24T11:40:29;33.10;87.70
14779;DHT22;7481;53.750;10.570;2022-08-24T11:49:31;32.70;86.80
14779;DHT22;7481;53.750;10.570;2022-08-24T11:52:51;32.80;87.80
14779;DHT22;7481;53.750;10.570;2022-08-24T11:55:55;32.30;86.10
14779;DHT22;7481;53.750;10.570;2022-08-24T11:58:58;32.30;90.00
14779;DHT22;7481;53.750;10.570;2022-08-24T12:01:54;32.30;85.30
14779;DHT22;7481;53.750;10.570;2022-08-24T12:10:50;32.50;86.40
14779;DHT22;7481;53.750;10.570;2022-08-24T12:14:04;32.50;87.30
14779;DHT22;7481;53.750;10.570;2022-08-24T12:17:04;32.60;84.00
14779;DHT22;7481;53.750;10.570;2022-08-24T12:20:34;31.10;85.70
14779;DHT22;7481;53.750;10.570;2022-08-24T12:23:41;31.90;84.90
14779;DHT22;7481;53.750;10.570;2022-08-24T12:26:49;32.10;84.60
14779;DHT22;7481;53.750;10.570;2022-08-24T12:29:44;31.80;83.90
14779;DHT22;7481;53.750;10.570;2022-08-24T12:32:41;31.80;85.70
14779;DHT22;7481;53.750;10.570;2022-08-24T12:35:33;31.80;86.50
14779;DHT22;7481;53.750;10.570;2022-08-24T12:38:51;31.90;85.80
14779;DHT22;7481;53.750;10.570;2022-08-24T12:42:13;32.00;83.40
14779;DHT22;7481;53.750;10.570;2022-08-24T12:45:13;32.10;83.10
14779;DHT22;7481;53.750;10.570;2022-08-24T12:48:20;32.20;85.20
14779;DHT22;7481;53.750;10.570;2022-08-24T12:51:38;32.30;83.60
14779;DHT22;7481;53.750;10.570;2022-08-24T12:54:59;32.30;82.50
14779;DHT22;7481;53.750;10.570;2022-08-24T12:58:01;32.30;81.00
14779;DHT22;7481;53.750;10.570;2022-08-24T13:01:10;32.10;84.00
14779;DHT22;7481;53.750;10.570;2022-08-24T13:04:39;32.20;83.20
14779;DHT22;7481;53.750;10.570;2022-08-24T13:07:31;32.20;80.50
14779;DHT22;7481;53.750;10.570;2022-08-24T13:13:15;31.90;82.00
14779;DHT22;7481;53.750;10.570;2022-08-24T13:16:05;31.50;80.20
14779;DHT22;7481;53.750;10.570;2022-08-24T13:19:12;31.30;82.10
14779;DHT22;7481;53.750;10.570;2022-08-24T13:25:44;30.80;81.50
14779;DHT22;7481;53.750;10.570;2022-08-24T13:28:44;30.60;83.80
14779;DHT22;7481;53.750;10.570;2022-08-24T13:31:34;30.70;86.00
14779;DHT22;7481;53.750;10.570;2022-08-24T13:34:39;30.70;87.50
14779;DHT22;7481;53.750;10.570;2022-08-24T13:37:27;30.80;86.20
14779;DHT22;7481;53.750;10.570;2022-08-24T13:40:21;30.80;86.10
14779;DHT22;7481;53.750;10.570;2022-08-24T13:43:37;30.70;84.80
14779;DHT22;7481;53.750;10.570;2022-08-24T13:46:49;30.80;84.50
14779;DHT22;7481;53.750;10.570;2022-08-24T13:49:40;30.80;84.50
14779;DHT22;7481;53.750;10.570;2022-08-24T13:52:48;31.90;85.50
14779;DHT22;7481;53.750;10.570;2022-08-24T13:55:54;30.80;87.20
14779;DHT22;7481;53.750;10.570;2022-08-24T14:05:16;30.60;88.30
14779;DHT22;7481;53.750;10.570;2022-08-24T14:11:33;30.40;88.90
14779;DHT22;7481;53.750;10.570;2022-08-24T14:18:25;30.20;89.30
14779;DHT22;7481;53.750;10.570;2022-08-24T14:21:17;29.90;88.50
14779;DHT22;7481;53.750;10.570;2022-08-24T14:24:30;29.80;88.40
14779;DHT22;7481;53.750;10.570;2022-08-24T14:27:46;29.60;89.80
14779;DHT22;7481;53.750;10.570;2022-08-24T14:33:26;29.80;88.80
14779;DHT22;7481;53.750;10.570;2022-08-24T14:36:40;29.80;90.00
14779;DHT22;7481;53.750;10.570;2022-08-24T14:39:51;29.60;89.20
14779;DHT22;7481;53.750;10.570;2022-08-24T14:46:02;29.40;90.40
14779;DHT22;7481;53.750;10.570;2022-08-24T14:55:33;29.10;91.20
14779;DHT22;7481;53.750;10.570;2022-08-24T15:01:46;29.20;90.50
14779;DHT22;7481;53.750;10.570;2022-08-24T15:04:51;29.10;90.80
14779;DHT22;7481;53.750;10.570;2022-08-24T15:07:58;29.10;91.00
14779;DHT22;7481;53.750;10.570;2022-08-24T15:10:48;28.90;91.40
14779;DHT22;7481;53.750;10.570;2022-08-24T15:16:45;28.80;92.20
14779;DHT22;7481;53.750;10.570;2022-08-24T15:19:51;28.60;92.50
14779;DHT22;7481;53.750;10.570;2022-08-24T15:22:49;28.40;92.10
14779;DHT22;7481;53.750;10.570;2022-08-24T15:25:54;28.20;92.50
14779;DHT22;7481;53.750;10.570;2022-08-24T15:28:51;28.20;93.00
14779;DHT22;7481;53.750;10.570;2022-08-24T15:31:53;28.20;93.00
14779;DHT22;7481;53.750;10.570;2022-08-24T15:34:45;28.80;93.30
14779;DHT22;7481;53.750;10.570;2022-08-24T15:37:37;28.20;93.00
14779;DHT22;7481;53.750;10.570;2022-08-24T15:40:29;28.20;93.10
14779;DHT22;7481;53.750;10.570;2022-08-24T15:43:17;28.00;93.40
14779;DHT22;7481;53.750;10.570;2022-08-24T15:46:05;28.00;93.20
14779;DHT22;7481;53.750;10.570;2022-08-24T15:52:04;27.80;93.80
14779;DHT22;7481;53.750;10.570;2022-08-24T15:54:58;27.70;93.80
14779;DHT22;7481;53.750;10.570;2022-08-24T15:57:45;27.80;93.90
14779;DHT22;7481;53.750;10.570;2022-08-24T16:00:36;27.70;94.30
14779;DHT22;7481;53.750;10.570;2022-08-24T16:03:52;27.70;94.20
14779;DHT22;7481;53.750;10.570;2022-08-24T16:06:49;27.60;94.20
14779;DHT22;7481;53.750;10.570;2022-08-24T16:09:36;27.50;94.50
14779;DHT22;7481;53.750;10.570;2022-08-24T16:12:26;27.40;94.50
14779;DHT22;7481;53.750;10.570;2022-08-24T16:15:18;27.40;94.50
14779;DHT22;7481;53.750;10.570;2022-08-24T16:18:05;27.40;94.70
14779;DHT22;7481;53.750;10.570;2022-08-24T16:20:55;27.40;96.40
14779;DHT22;7481;53.750;10.570;2022-08-24T16:23:45;27.30;96.90
14779;DHT22;7481;53.750;10.570;2022-08-24T16:26:55;27.20;97.30
14779;DHT22;7481;53.750;10.570;2022-08-24T16:29:48;27.00;97.80
14779;DHT22;7481;53.750;10.570;2022-08-24T16:32:54;26.90;98.40
14779;DHT22;7481;53.750;10.570;2022-08-24T16:35:41;27.00;98.60
14779;DHT22;7481;53.750;10.570;2022-08-24T16:38:30;26.80;99.00
14779;DHT22;7481;53.750;10.570;2022-08-24T16:41:20;26.60;99.90
14779;DHT22;7481;53.750;10.570;2022-08-24T16:44:08;26.50;99.90
14779;DHT22;7481;53.750;10.570;2022-08-24T16:46:56;26.40;99.90
14779;DHT22;7481;53.750;10.570;2022-08-24T16:49:43;26.20;99.90
14779;DHT22;7481;53.750;10.570;2022-08-24T16:52:30;26.10;99.90
14779;DHT22;7481;53.750;10.570;2022-08-24T16:55:17;26.00;99.90
14779;DHT22;7481;53.750;10.570;2022-08-24T16:58:05;25.70;99.90
14779;DHT22;7481;53.750;10.570;2022-08-24T17:00:52;26.00;99.90
14779;DHT22;7481;53.750;10.570;2022-08-24T17:03:41;25.70;99.90
14779;DHT22;7481;53.750;10.570;2022-08-24T17:06:29;25.70;99.90
14779;DHT22;7481;53.750;10.570;2022-08-24T17:09:17;25.60;99.90
14779;DHT22;7481;53.750;10.570;2022-08-24T17:12:04;25.60;99.90
14779;DHT22;7481;53.750;10.570;2022-08-24T17:14:52;25.50;99.90
14779;DHT22;7481;53.750;10.570;2022-08-24T17:18:06;25.50;99.90
14779;DHT22;7481;53.750;10.570;2022-08-24T17:20:52;25.40;99.90
14779;DHT22;7481;53.750;10.570;2022-08-24T17:23:40;25.40;99.90
14779;DHT22;7481;53.750;10.570;2022-08-24T17:26:29;25.30;99.90
14779;DHT22;7481;53.750;10.570;2022-08-24T17:29:17;26.90;99.90
14779;DHT22;7481;53.750;10.570;2022-08-24T17:32:05;25.20;99.90
14779;DHT22;7481;53.750;10.570;2022-08-24T17:34:52;25.10;99.90
14779;DHT22;7481;53.750;10.570;2022-08-24T17:37:40;25.10;99.90
14779;DHT22;7481;53.750;10.570;2022-08-24T17:40:27;25.00;99.90
14779;DHT22;7481;53.750;10.570;2022-08-24T17:43:16;24.80;99.90
14779;DHT22;7481;53.750;10.570;2022-08-24T17:46:04;24.90;99.90
14779;DHT22;7481;53.750;10.570;2022-08-24T17:48:51;24.70;99.90
14779;DHT22;7481;53.750;10.570;2022-08-24T17:51:38;24.60;99.90
14779;DHT22;7481;53.750;10.570;2022-08-24T17:54:27;24.50;99.90
14779;DHT22;7481;53.750;10.570;2022-08-24T17:57:14;24.50;99.90
14779;DHT22;7481;53.750;10.570;2022-08-24T18:00:01;24.40;99.90
14779;DHT22;7481;53.750;10.570;2022-08-24T18:02:48;24.30;99.90
14779;DHT22;7481;53.750;10.570;2022-08-24T18:05:35;24.20;99.90
14779;DHT22;7481;53.750;10.570;2022-08-24T18:08:22;24.20;99.90
14779;DHT22;7481;53.750;10.570;2022-08-24T18:11:09;24.00;99.90
14779;DHT22;7481;53.750;10.570;2022-08-24T18:13:56;24.00;99.90
14779;DHT22;7481;53.750;10.570;2022-08-24T18:16:43;23.90;99.90
14779;DHT22;7481;53.750;10.570;2022-08-24T18:19:40;23.90;99.90
14779;DHT22;7481;53.750;10.570;2022-08-24T18:22:27;23.80;99.90
14779;DHT22;7481;53.750;10.570;2022-08-24T18:25:16;23.70;99.90
14779;DHT22;7481;53.750;10.570;2022-08-24T18:28:05;23.70;99.90
14779;DHT22;7481;53.750;10.570;2022-08-24T18:30:52;23.60;99.90
14779;DHT22;7481;53.750;10.570;2022-08-24T18:33:39;23.60;99.90
14779;DHT22;7481;53.750;10.570;2022-08-24T18:36:26;23.50;99.90
14779;DHT22;7481;53.750;10.570;2022-08-24T18:39:14;23.40;99.90
14779;DHT22;7481;53.750;10.570;2022-08-24T18:42:05;23.40;99.90
14779;DHT22;7481;53.750;10.570;2022-08-24T18:44:53;23.30;99.90
14779;DHT22;7481;53.750;10.570;2022-08-24T18:47:40;23.20;99.90
14779;DHT22;7481;53.750;10.570;2022-08-24T18:50:28;23.10;99.90
14779;DHT22;7481;53.750;10.570;2022-08-24T18:53:15;23.10;99.90
14779;DHT22;7481;53.750;10.570;2022-08-24T18:56:03;23.00;99.90
14779;DHT22;7481;53.750;10.570;2022-08-24T18:58:58;23.00;99.90
14779;DHT22;7481;53.750;10.570;2022-08-24T19:01:47;23.10;99.90
14779;DHT22;7481;53.750;10.570;2022-08-24T19:04:55;22.80;99.90
14779;DHT22;7481;53.750;10.570;2022-08-24T19:07:45;22.70;99.90
14779;DHT22;7481;53.750;10.570;2022-08-24T19:10:35;22.60;99.90
14779;DHT22;7481;53.750;10.570;2022-08-24T19:13:22;22.60;99.90
14779;DHT22;7481;53.750;10.570;2022-08-24T19:16:09;22.50;99.90
14779;DHT22;7481;53.750;10.570;2022-08-24T19:18:56;22.50;99.90
14779;DHT22;7481;53.750;10.570;2022-08-24T19:21:43;22.40;99.90
14779;DHT22;7481;53.750;10.570;2022-08-24T19:24:31;22.40;99.90
14779;DHT22;7481;53.750;10.570;2022-08-24T19:27:18;22.30;99.90
14779;DHT22;7481;53.750;10.570;2022-08-24T19:30:06;22.30;99.90
14779;DHT22;7481;53.750;10.570;2022-08-24T19:32:54;22.30;99.90
14779;DHT22;7481;53.750;10.570;2022-08-24T19:35:41;22.20;99.90
14779;DHT22;7481;53.750;10.570;2022-08-24T19:38:28;22.20;99.90
14779;DHT22;7481;53.750;10.570;2022-08-24T19:41:16;23.10;99.90
14779;DHT22;7481;53.750;10.570;2022-08-24T19:44:06;22.00;99.90
14779;DHT22;7481;53.750;10.570;2022-08-24T19:47:13;22.00;99.90
14779;DHT22;7481;53.750;10.570;2022-08-24T19:50:02;21.90;99.90
14779;DHT22;7481;53.750;10.570;2022-08-24T19:52:49;22.50;99.90
14779;DHT22;7481;53.750;10.570;2022-08-24T19:55:40;22.00;99.90
14779;DHT22;7481;53.750;10.570;2022-08-24T20:01:26;21.70;99.90
14779;DHT22;7481;53.750;10.570;2022-08-24T20:04:14;21.60;99.90
14779;DHT22;7481;53.750;10.570;2022-08-24T20:07:01;21.60;99.90
14779;DHT22;7481;53.750;10.570;2022-08-24T20:09:49;21.60;99.90
14779;DHT22;7481;53.750;10.570;2022-08-24T20:12:36;21.40;99.90
14779;DHT22;7481;53.750;10.570;2022-08-24T20:15:23;21.90;99.90
14779;DHT22;7481;53.750;10.570;2022-08-24T20:18:10;21.30;99.90
14779;DHT22;7481;53.750;10.570;2022-08-24T20:20:59;21.30;99.90
14779;DHT22;7481;53.750;10.570;2022-08-24T20:23:46;21.20;99.90
14779;DHT22;7481;53.750;10.570;2022-08-24T20:26:44;21.20;99.90
14779;DHT22;7481;53.750;10.570;2022-08-24T20:29:31;21.30;99.90
14779;DHT22;7481;53.750;10.570;2022-08-24T20:32:19;21.20;99.90
14779;DHT22;7481;53.750;10.570;2022-08-24T20:35:06;21.10;99.90
14779;DHT22;7481;53.750;10.570;2022-08-24T20:37:54;21.00;99.90